sensor_id;sensor_type;location;lat;lon;timestamp;temperature;humidity
56137;DHT22;42008;52.934;5.884;2023-05-08T00:01:43;13.40;1.00
56137;DHT22;42008;52.934;5.884;2023-05-08T00:04:08;13.40;1.00
56137;DHT22;42008;52.934;5.884;2023-05-08T00:06:34;13.80;1.00
56137;DHT22;42008;52.934;5.884;2023-05-08T00:09:00;14.80;1.00
56137;DHT22;42008;52.934;5.884;2023-05-08T00:11:25;13.30;1.00
56137;DHT22;42008;52.934;5.884;2023-05-08T00:13:51;14.50;1.00
56137;DHT22;42008;52.934;5.884;2023-05-08T00:16:16;14.70;1.00
56137;DHT22;42008;52.934;5.884;2023-05-08T00:18:42;14.20;1.00
56137;DHT22;42008;52.934;5.884;2023-05-08T00:21:07;14.70;1.00
56137;DHT22;42008;52.934;5.884;2023-05-08T00:23:33;14.20;1.00
56137;DHT22;42008;52.934;5.884;2023-05-08T00:25:59;13.30;1.00
56137;DHT22;42008;52.934;5.884;2023-05-08T00:28:24;14.60;1.00
56137;DHT22;42008;52.934;5.884;2023-05-08T00:30:50;14.70;1.00
56137;DHT22;42008;52.934;5.884;2023-05-08T00:33:16;14.00;1.00
56137;DHT22;42008;52.934;5.884;2023-05-08T00:35:42;12.90;1.00
56137;DHT22;42008;52.934;5.884;2023-05-08T00:38:08;14.50;1.00
56137;DHT22;42008;52.934;5.884;2023-05-08T00:40:34;13.00;1.00
56137;DHT22;42008;52.934;5.884;2023-05-08T00:43:00;13.50;1.00
56137;DHT22;42008;52.934;5.884;2023-05-08T00:45:33;13.50;38.20
56137;DHT22;42008;52.934;5.884;2023-05-08T00:48:01;13.60;1.00
56137;DHT22;42008;52.934;5.884;2023-05-08T00:50:27;14.50;1.00
56137;DHT22;42008;52.934;5.884;2023-05-08T00:52:53;13.20;1.00
56137;DHT22;42008;52.934;5.884;2023-05-08T00:55:19;13.60;1.00
56137;DHT22;42008;52.934;5.884;2023-05-08T00:57:46;12.40;1.00
56137;DHT22;42008;52.934;5.884;2023-05-08T01:00:15;13.40;1.00
56137;DHT22;42008;52.934;5.884;2023-05-08T01:02:42;13.90;1.00
56137;DHT22;42008;52.934;5.884;2023-05-08T01:05:07;13.00;1.00
56137;DHT22;42008;52.934;5.884;2023-05-08T01:07:33;14.50;5.20
56137;DHT22;42008;52.934;5.884;2023-05-08T01:09:59;12.90;44.10
56137;DHT22;42008;52.934;5.884;2023-05-08T01:15:34;13.40;97.60
56137;DHT22;42008;52.934;5.884;2023-05-08T01:18:27;13.70;99.90
56137;DHT22;42008;52.934;5.884;2023-05-08T01:26:37;13.00;1.00
56137;DHT22;42008;52.934;5.884;2023-05-08T01:32:11;13.10;1.00
56137;DHT22;42008;52.934;5.884;2023-05-08T01:34:49;14.00;1.00
56137;DHT22;42008;52.934;5.884;2023-05-08T01:37:28;13.10;1.00
56137;DHT22;42008;52.934;5.884;2023-05-08T01:45:15;12.30;99.90
56137;DHT22;42008;52.934;5.884;2023-05-08T01:47:44;13.00;99.90
56137;DHT22;42008;52.934;5.884;2023-05-08T01:50:18;13.00;99.90
56137;DHT22;42008;52.934;5.884;2023-05-08T01:52:48;13.30;99.90
56137;DHT22;42008;52.934;5.884;2023-05-08T01:55:20;13.00;99.90
56137;DHT22;42008;52.934;5.884;2023-05-08T01:57:52;12.90;99.90
56137;DHT22;42008;52.934;5.884;2023-05-08T02:00:21;13.00;99.90
56137;DHT22;42008;52.934;5.884;2023-05-08T02:02:49;13.00;34.20
56137;DHT22;42008;52.934;5.884;2023-05-08T02:05:16;13.70;13.50
56137;DHT22;42008;52.934;5.884;2023-05-08T02:07:45;13.80;1.00
56137;DHT22;42008;52.934;5.884;2023-05-08T02:10:12;13.30;1.00
56137;DHT22;42008;52.934;5.884;2023-05-08T02:12:39;13.30;1.00
56137;DHT22;42008;52.934;5.884;2023-05-08T02:15:07;13.50;1.00
56137;DHT22;42008;52.934;5.884;2023-05-08T02:17:35;12.60;1.00
56137;DHT22;42008;52.934;5.884;2023-05-08T02:20:02;13.30;1.00
56137;DHT22;42008;52.934;5.884;2023-05-08T02:22:29;14.00;1.00
56137;DHT22;42008;52.934;5.884;2023-05-08T02:24:57;15.10;1.00
56137;DHT22;42008;52.934;5.884;2023-05-08T02:27:24;13.00;1.00
56137;DHT22;42008;52.934;5.884;2023-05-08T02:29:51;13.30;1.00
56137;DHT22;42008;52.934;5.884;2023-05-08T02:32:19;13.30;1.00
56137;DHT22;42008;52.934;5.884;2023-05-08T02:34:47;13.30;1.00
56137;DHT22;42008;52.934;5.884;2023-05-08T02:37:14;14.10;99.90
56137;DHT22;42008;52.934;5.884;2023-05-08T02:39:41;13.10;99.90
56137;DHT22;42008;52.934;5.884;2023-05-08T02:42:08;13.10;99.90
56137;DHT22;42008;52.934;5.884;2023-05-08T02:44:34;13.10;99.90
56137;DHT22;42008;52.934;5.884;2023-05-08T02:47:21;12.70;99.90
56137;DHT22;42008;52.934;5.884;2023-05-08T02:52:49;13.90;99.90
56137;DHT22;42008;52.934;5.884;2023-05-08T03:00:41;13.20;99.90
56137;DHT22;42008;52.934;5.884;2023-05-08T03:03:14;13.00;99.90
56137;DHT22;42008;52.934;5.884;2023-05-08T03:05:46;13.10;99.90
56137;DHT22;42008;52.934;5.884;2023-05-08T03:08:18;13.10;99.90
56137;DHT22;42008;52.934;5.884;2023-05-08T03:10:47;13.10;99.90
56137;DHT22;42008;52.934;5.884;2023-05-08T03:13:14;13.20;97.60
56137;DHT22;42008;52.934;5.884;2023-05-08T03:15:53;13.50;52.30
56137;DHT22;42008;52.934;5.884;2023-05-08T03:18:22;13.10;99.90
56137;DHT22;42008;52.934;5.884;2023-05-08T03:20:53;13.30;99.90
56137;DHT22;42008;52.934;5.884;2023-05-08T03:23:20;13.40;98.30
56137;DHT22;42008;52.934;5.884;2023-05-08T03:25:46;12.80;99.90
56137;DHT22;42008;52.934;5.884;2023-05-08T03:28:13;12.50;99.90
56137;DHT22;42008;52.934;5.884;2023-05-08T03:30:40;13.10;99.90
56137;DHT22;42008;52.934;5.884;2023-05-08T03:33:07;12.60;99.90
56137;DHT22;42008;52.934;5.884;2023-05-08T03:35:37;11.70;99.90
56137;DHT22;42008;52.934;5.884;2023-05-08T03:38:04;12.90;99.90
56137;DHT22;42008;52.934;5.884;2023-05-08T03:40:30;12.80;99.90
56137;DHT22;42008;52.934;5.884;2023-05-08T03:42:57;12.80;99.90
56137;DHT22;42008;52.934;5.884;2023-05-08T03:45:24;13.00;99.90
56137;DHT22;42008;52.934;5.884;2023-05-08T03:47:51;12.70;99.90
56137;DHT22;42008;52.934;5.884;2023-05-08T03:50:18;12.20;99.90
56137;DHT22;42008;52.934;5.884;2023-05-08T03:52:44;12.70;99.90
56137;DHT22;42008;52.934;5.884;2023-05-08T03:55:10;12.10;99.90
56137;DHT22;42008;52.934;5.884;2023-05-08T03:57:49;11.60;99.90
56137;DHT22;42008;52.934;5.884;2023-05-08T04:00:35;12.10;99.90
56137;DHT22;42008;52.934;5.884;2023-05-08T04:03:23;12.80;99.90
56137;DHT22;42008;52.934;5.884;2023-05-08T04:06:09;12.90;99.90
56137;DHT22;42008;52.934;5.884;2023-05-08T04:08:52;12.10;99.90
56137;DHT22;42008;52.934;5.884;2023-05-08T04:11:29;12.20;99.90
56137;DHT22;42008;52.934;5.884;2023-05-08T04:14:03;12.20;99.90
56137;DHT22;42008;52.934;5.884;2023-05-08T04:16:37;12.70;99.90
56137;DHT22;42008;52.934;5.884;2023-05-08T04:19:09;11.60;99.90
56137;DHT22;42008;52.934;5.884;2023-05-08T04:21:36;13.00;99.90
56137;DHT22;42008;52.934;5.884;2023-05-08T04:24:06;11.60;99.90
56137;DHT22;42008;52.934;5.884;2023-05-08T04:26:32;12.10;99.90
56137;DHT22;42008;52.934;5.884;2023-05-08T04:28:58;13.20;99.90
56137;DHT22;42008;52.934;5.884;2023-05-08T04:31:25;11.60;99.90
56137;DHT22;42008;52.934;5.884;2023-05-08T04:33:51;11.40;99.90
56137;DHT22;42008;52.934;5.884;2023-05-08T04:36:17;11.50;99.90
56137;DHT22;42008;52.934;5.884;2023-05-08T04:38:43;11.40;99.90
56137;DHT22;42008;52.934;5.884;2023-05-08T04:41:08;11.70;99.90
56137;DHT22;42008;52.934;5.884;2023-05-08T04:43:35;11.50;16.70
56137;DHT22;42008;52.934;5.884;2023-05-08T04:46:01;11.90;1.00
56137;DHT22;42008;52.934;5.884;2023-05-08T04:48:28;13.00;1.00
56137;DHT22;42008;52.934;5.884;2023-05-08T04:50:56;12.20;1.00
56137;DHT22;42008;52.934;5.884;2023-05-08T04:53:22;13.20;1.00
56137;DHT22;42008;52.934;5.884;2023-05-08T04:55:48;12.90;1.00
56137;DHT22;42008;52.934;5.884;2023-05-08T04:58:13;12.80;1.00
56137;DHT22;42008;52.934;5.884;2023-05-08T05:00:39;13.00;1.00
56137;DHT22;42008;52.934;5.884;2023-05-08T05:03:04;13.00;1.00
56137;DHT22;42008;52.934;5.884;2023-05-08T05:05:30;12.60;1.00
56137;DHT22;42008;52.934;5.884;2023-05-08T05:07:56;13.00;1.00
56137;DHT22;42008;52.934;5.884;2023-05-08T05:10:21;11.90;1.00
56137;DHT22;42008;52.934;5.884;2023-05-08T05:12:47;13.10;1.00
56137;DHT22;42008;52.934;5.884;2023-05-08T05:15:13;13.40;1.00
56137;DHT22;42008;52.934;5.884;2023-05-08T05:17:38;12.30;1.00
56137;DHT22;42008;52.934;5.884;2023-05-08T05:20:04;12.80;99.90
56137;DHT22;42008;52.934;5.884;2023-05-08T05:22:32;12.50;99.90
56137;DHT22;42008;52.934;5.884;2023-05-08T05:24:57;13.20;99.90
56137;DHT22;42008;52.934;5.884;2023-05-08T05:27:23;13.20;99.90
56137;DHT22;42008;52.934;5.884;2023-05-08T05:29:49;13.10;99.90
56137;DHT22;42008;52.934;5.884;2023-05-08T05:32:15;14.60;99.90
56137;DHT22;42008;52.934;5.884;2023-05-08T05:34:42;12.70;99.90
56137;DHT22;42008;52.934;5.884;2023-05-08T05:37:07;13.60;37.60
56137;DHT22;42008;52.934;5.884;2023-05-08T05:39:33;12.80;1.00
56137;DHT22;42008;52.934;5.884;2023-05-08T05:42:00;14.50;1.00
56137;DHT22;42008;52.934;5.884;2023-05-08T05:44:25;14.10;1.00
56137;DHT22;42008;52.934;5.884;2023-05-08T05:46:51;13.10;1.00
56137;DHT22;42008;52.934;5.884;2023-05-08T05:49:16;13.10;1.00
56137;DHT22;42008;52.934;5.884;2023-05-08T05:51:42;13.80;1.00
56137;DHT22;42008;52.934;5.884;2023-05-08T05:54:08;13.50;1.00
56137;DHT22;42008;52.934;5.884;2023-05-08T05:56:33;14.90;99.90
56137;DHT22;42008;52.934;5.884;2023-05-08T05:58:59;13.70;99.90
56137;DHT22;42008;52.934;5.884;2023-05-08T06:01:24;15.10;99.90
56137;DHT22;42008;52.934;5.884;2023-05-08T06:03:50;15.10;99.90
56137;DHT22;42008;52.934;5.884;2023-05-08T06:06:15;15.00;99.90
56137;DHT22;42008;52.934;5.884;2023-05-08T06:08:41;15.20;99.90
56137;DHT22;42008;52.934;5.884;2023-05-08T06:11:07;14.60;99.90
56137;DHT22;42008;52.934;5.884;2023-05-08T06:13:33;14.90;91.40
56137;DHT22;42008;52.934;5.884;2023-05-08T06:15:58;13.70;84.20
56137;DHT22;42008;52.934;5.884;2023-05-08T06:18:24;14.70;49.00
56137;DHT22;42008;52.934;5.884;2023-05-08T06:20:57;15.00;1.90
56137;DHT22;42008;52.934;5.884;2023-05-08T06:23:24;14.60;1.00
56137;DHT22;42008;52.934;5.884;2023-05-08T06:25:50;14.70;1.00
56137;DHT22;42008;52.934;5.884;2023-05-08T06:28:15;14.60;16.90
56137;DHT22;42008;52.934;5.884;2023-05-08T06:30:41;15.20;57.60
56137;DHT22;42008;52.934;5.884;2023-05-08T06:33:08;14.90;20.10
56137;DHT22;42008;52.934;5.884;2023-05-08T06:35:35;15.30;39.50
56137;DHT22;42008;52.934;5.884;2023-05-08T06:38:01;15.50;5.30
56137;DHT22;42008;52.934;5.884;2023-05-08T06:40:27;15.00;1.00
56137;DHT22;42008;52.934;5.884;2023-05-08T06:42:53;15.80;1.00
56137;DHT22;42008;52.934;5.884;2023-05-08T06:45:18;15.40;1.00
56137;DHT22;42008;52.934;5.884;2023-05-08T06:47:44;15.50;1.00
56137;DHT22;42008;52.934;5.884;2023-05-08T06:50:09;14.90;1.00
56137;DHT22;42008;52.934;5.884;2023-05-08T06:52:35;14.10;1.00
56137;DHT22;42008;52.934;5.884;2023-05-08T06:55:01;15.20;1.00
56137;DHT22;42008;52.934;5.884;2023-05-08T06:57:26;15.10;1.00
56137;DHT22;42008;52.934;5.884;2023-05-08T06:59:54;15.70;1.00
56137;DHT22;42008;52.934;5.884;2023-05-08T07:02:20;15.30;1.00
56137;DHT22;42008;52.934;5.884;2023-05-08T07:04:46;15.30;1.00
56137;DHT22;42008;52.934;5.884;2023-05-08T07:07:11;15.20;1.00
56137;DHT22;42008;52.934;5.884;2023-05-08T07:09:38;15.50;1.00
56137;DHT22;42008;52.934;5.884;2023-05-08T07:12:04;15.50;1.00
56137;DHT22;42008;52.934;5.884;2023-05-08T07:14:30;16.20;1.00
56137;DHT22;42008;52.934;5.884;2023-05-08T07:16:56;16.70;1.00
56137;DHT22;42008;52.934;5.884;2023-05-08T07:19:22;15.50;1.00
56137;DHT22;42008;52.934;5.884;2023-05-08T07:21:49;15.80;1.00
56137;DHT22;42008;52.934;5.884;2023-05-08T07:24:15;15.40;1.00
56137;DHT22;42008;52.934;5.884;2023-05-08T07:26:40;16.50;1.00
56137;DHT22;42008;52.934;5.884;2023-05-08T07:29:06;15.80;1.00
56137;DHT22;42008;52.934;5.884;2023-05-08T07:31:32;17.00;1.00
56137;DHT22;42008;52.934;5.884;2023-05-08T07:33:58;15.90;1.00
56137;DHT22;42008;52.934;5.884;2023-05-08T07:36:23;16.90;1.00
56137;DHT22;42008;52.934;5.884;2023-05-08T07:38:49;16.00;99.90
56137;DHT22;42008;52.934;5.884;2023-05-08T07:41:14;17.30;99.90
56137;DHT22;42008;52.934;5.884;2023-05-08T07:43:40;17.20;99.90
56137;DHT22;42008;52.934;5.884;2023-05-08T07:46:07;16.10;99.90
56137;DHT22;42008;52.934;5.884;2023-05-08T07:48:33;16.30;99.90
56137;DHT22;42008;52.934;5.884;2023-05-08T07:51:01;17.40;99.90
56137;DHT22;42008;52.934;5.884;2023-05-08T07:53:27;17.50;99.90
56137;DHT22;42008;52.934;5.884;2023-05-08T07:55:53;17.50;99.90
56137;DHT22;42008;52.934;5.884;2023-05-08T07:58:18;16.80;99.90
56137;DHT22;42008;52.934;5.884;2023-05-08T08:00:44;17.00;99.90
56137;DHT22;42008;52.934;5.884;2023-05-08T08:03:09;17.30;99.90
56137;DHT22;42008;52.934;5.884;2023-05-08T08:05:35;17.30;99.90
56137;DHT22;42008;52.934;5.884;2023-05-08T08:08:00;17.40;99.90
56137;DHT22;42008;52.934;5.884;2023-05-08T08:10:26;17.40;99.90
56137;DHT22;42008;52.934;5.884;2023-05-08T08:12:51;17.10;99.90
56137;DHT22;42008;52.934;5.884;2023-05-08T08:15:17;17.70;99.90
56137;DHT22;42008;52.934;5.884;2023-05-08T08:17:43;17.10;99.90
56137;DHT22;42008;52.934;5.884;2023-05-08T08:20:08;16.50;99.90
56137;DHT22;42008;52.934;5.884;2023-05-08T08:22:36;17.10;99.90
56137;DHT22;42008;52.934;5.884;2023-05-08T08:25:01;17.50;99.90
56137;DHT22;42008;52.934;5.884;2023-05-08T08:27:27;17.50;99.90
56137;DHT22;42008;52.934;5.884;2023-05-08T08:29:53;17.60;99.90
56137;DHT22;42008;52.934;5.884;2023-05-08T08:32:18;17.60;99.90
56137;DHT22;42008;52.934;5.884;2023-05-08T08:34:44;17.30;99.90
56137;DHT22;42008;52.934;5.884;2023-05-08T08:37:09;17.70;99.90
56137;DHT22;42008;52.934;5.884;2023-05-08T08:39:35;17.60;99.90
56137;DHT22;42008;52.934;5.884;2023-05-08T08:42:01;19.60;99.90
56137;DHT22;42008;52.934;5.884;2023-05-08T08:44:27;18.10;99.90
56137;DHT22;42008;52.934;5.884;2023-05-08T08:46:52;18.00;99.90
56137;DHT22;42008;52.934;5.884;2023-05-08T08:49:24;18.10;99.90
56137;DHT22;42008;52.934;5.884;2023-05-08T08:51:55;18.20;99.90
56137;DHT22;42008;52.934;5.884;2023-05-08T08:54:23;18.00;99.90
56137;DHT22;42008;52.934;5.884;2023-05-08T08:56:50;18.10;99.90
56137;DHT22;42008;52.934;5.884;2023-05-08T08:59:17;18.30;99.90
56137;DHT22;42008;52.934;5.884;2023-05-08T09:01:51;19.40;99.90
56137;DHT22;42008;52.934;5.884;2023-05-08T09:04:18;18.40;99.90
56137;DHT22;42008;52.934;5.884;2023-05-08T09:06:44;18.40;99.90
56137;DHT22;42008;52.934;5.884;2023-05-08T09:09:11;20.00;99.90
56137;DHT22;42008;52.934;5.884;2023-05-08T09:11:39;18.30;99.90
56137;DHT22;42008;52.934;5.884;2023-05-08T09:14:05;18.50;99.90
56137;DHT22;42008;52.934;5.884;2023-05-08T09:16:30;20.50;99.90
56137;DHT22;42008;52.934;5.884;2023-05-08T09:18:56;19.50;99.90
56137;DHT22;42008;52.934;5.884;2023-05-08T09:21:22;19.10;99.90
56137;DHT22;42008;52.934;5.884;2023-05-08T09:24:14;18.90;99.90
56137;DHT22;42008;52.934;5.884;2023-05-08T09:26:40;19.90;99.90
56137;DHT22;42008;52.934;5.884;2023-05-08T09:31:39;18.90;99.90
56137;DHT22;42008;52.934;5.884;2023-05-08T09:34:10;20.70;99.90
56137;DHT22;42008;52.934;5.884;2023-05-08T09:36:36;20.30;99.90
56137;DHT22;42008;52.934;5.884;2023-05-08T09:39:04;20.60;99.90
56137;DHT22;42008;52.934;5.884;2023-05-08T09:41:34;20.60;99.90
56137;DHT22;42008;52.934;5.884;2023-05-08T09:44:05;20.70;99.90
56137;DHT22;42008;52.934;5.884;2023-05-08T09:46:32;20.50;99.90
56137;DHT22;42008;52.934;5.884;2023-05-08T09:49:02;20.90;99.90
56137;DHT22;42008;52.934;5.884;2023-05-08T09:51:29;20.90;99.90
56137;DHT22;42008;52.934;5.884;2023-05-08T09:53:59;20.90;99.90
56137;DHT22;42008;52.934;5.884;2023-05-08T09:56:35;23.10;99.90
56137;DHT22;42008;52.934;5.884;2023-05-08T09:59:03;20.50;99.90
56137;DHT22;42008;52.934;5.884;2023-05-08T10:01:33;20.60;99.90
56137;DHT22;42008;52.934;5.884;2023-05-08T10:03:59;21.10;99.90
56137;DHT22;42008;52.934;5.884;2023-05-08T10:06:26;22.90;99.90
56137;DHT22;42008;52.934;5.884;2023-05-08T10:09:10;20.80;99.90
56137;DHT22;42008;52.934;5.884;2023-05-08T10:11:37;21.10;99.90
56137;DHT22;42008;52.934;5.884;2023-05-08T10:14:02;20.60;99.90
56137;DHT22;42008;52.934;5.884;2023-05-08T10:16:28;21.90;99.90
56137;DHT22;42008;52.934;5.884;2023-05-08T10:19:00;23.20;99.90
56137;DHT22;42008;52.934;5.884;2023-05-08T10:21:35;22.60;99.90
56137;DHT22;42008;52.934;5.884;2023-05-08T10:24:04;22.90;99.90
56137;DHT22;42008;52.934;5.884;2023-05-08T10:26:30;22.60;99.90
56137;DHT22;42008;52.934;5.884;2023-05-08T10:29:03;21.20;99.90
56137;DHT22;42008;52.934;5.884;2023-05-08T10:31:34;21.30;99.90
56137;DHT22;42008;52.934;5.884;2023-05-08T10:34:01;23.10;99.90
56137;DHT22;42008;52.934;5.884;2023-05-08T10:36:27;23.30;99.90
56137;DHT22;42008;52.934;5.884;2023-05-08T10:38:53;23.00;99.90
56137;DHT22;42008;52.934;5.884;2023-05-08T10:41:22;23.40;99.90
56137;DHT22;42008;52.934;5.884;2023-05-08T10:43:49;23.50;99.90
56137;DHT22;42008;52.934;5.884;2023-05-08T10:46:43;23.30;99.90
56137;DHT22;42008;52.934;5.884;2023-05-08T10:49:50;23.70;99.90
56137;DHT22;42008;52.934;5.884;2023-05-08T10:52:37;22.00;99.90
56137;DHT22;42008;52.934;5.884;2023-05-08T10:58:10;23.40;99.90
56137;DHT22;42008;52.934;5.884;2023-05-08T11:03:24;23.40;99.90
56137;DHT22;42008;52.934;5.884;2023-05-08T11:05:51;23.00;99.90
56137;DHT22;42008;52.934;5.884;2023-05-08T11:08:22;23.30;99.90
56137;DHT22;42008;52.934;5.884;2023-05-08T11:13:29;23.50;99.90
56137;DHT22;42008;52.934;5.884;2023-05-08T11:15:56;23.80;99.90
56137;DHT22;42008;52.934;5.884;2023-05-08T11:18:22;23.30;99.90
56137;DHT22;42008;52.934;5.884;2023-05-08T11:21:00;24.00;99.90
56137;DHT22;42008;52.934;5.884;2023-05-08T11:23:29;23.70;99.90
56137;DHT22;42008;52.934;5.884;2023-05-08T11:26:03;24.20;99.90
56137;DHT22;42008;52.934;5.884;2023-05-08T11:28:54;23.50;99.90
56137;DHT22;42008;52.934;5.884;2023-05-08T11:31:21;23.60;99.90
56137;DHT22;42008;52.934;5.884;2023-05-08T11:33:46;23.40;99.90
56137;DHT22;42008;52.934;5.884;2023-05-08T11:36:17;23.70;99.90
56137;DHT22;42008;52.934;5.884;2023-05-08T11:41:32;24.20;99.90
56137;DHT22;42008;52.934;5.884;2023-05-08T11:49:10;23.60;1.00
56137;DHT22;42008;52.934;5.884;2023-05-08T11:51:36;23.60;1.00
56137;DHT22;42008;52.934;5.884;2023-05-08T11:54:03;23.80;1.00
56137;DHT22;42008;52.934;5.884;2023-05-08T11:56:30;23.20;1.00
56137;DHT22;42008;52.934;5.884;2023-05-08T11:59:05;23.90;1.00
56137;DHT22;42008;52.934;5.884;2023-05-08T12:01:31;24.10;1.00
56137;DHT22;42008;52.934;5.884;2023-05-08T12:04:08;23.90;1.00
56137;DHT22;42008;52.934;5.884;2023-05-08T12:06:36;26.00;1.00
56137;DHT22;42008;52.934;5.884;2023-05-08T12:09:08;24.70;1.00
56137;DHT22;42008;52.934;5.884;2023-05-08T12:11:34;25.80;1.00
56137;DHT22;42008;52.934;5.884;2023-05-08T12:13:59;24.50;1.00
56137;DHT22;42008;52.934;5.884;2023-05-08T12:16:25;24.40;1.00
56137;DHT22;42008;52.934;5.884;2023-05-08T12:18:52;24.20;1.00
56137;DHT22;42008;52.934;5.884;2023-05-08T12:21:18;23.80;1.00
56137;DHT22;42008;52.934;5.884;2023-05-08T12:23:44;22.60;1.00
56137;DHT22;42008;52.934;5.884;2023-05-08T12:26:10;23.60;1.00
56137;DHT22;42008;52.934;5.884;2023-05-08T12:28:37;24.40;1.00
56137;DHT22;42008;52.934;5.884;2023-05-08T12:31:03;23.80;1.00
56137;DHT22;42008;52.934;5.884;2023-05-08T12:33:29;23.30;1.00
56137;DHT22;42008;52.934;5.884;2023-05-08T12:35:55;23.60;1.00
56137;DHT22;42008;52.934;5.884;2023-05-08T12:38:28;23.30;1.00
56137;DHT22;42008;52.934;5.884;2023-05-08T12:40:54;23.70;1.00
56137;DHT22;42008;52.934;5.884;2023-05-08T12:43:20;23.60;1.00
56137;DHT22;42008;52.934;5.884;2023-05-08T12:45:46;23.70;1.00
56137;DHT22;42008;52.934;5.884;2023-05-08T12:48:14;23.60;43.90
56137;DHT22;42008;52.934;5.884;2023-05-08T12:50:42;23.40;1.00
56137;DHT22;42008;52.934;5.884;2023-05-08T12:53:16;23.20;29.70
56137;DHT22;42008;52.934;5.884;2023-05-08T12:55:53;23.70;1.00
56137;DHT22;42008;52.934;5.884;2023-05-08T12:58:21;23.70;1.00
56137;DHT22;42008;52.934;5.884;2023-05-08T13:00:49;23.90;99.90
56137;DHT22;42008;52.934;5.884;2023-05-08T13:03:27;23.80;99.90
56137;DHT22;42008;52.934;5.884;2023-05-08T13:05:55;24.30;99.90
56137;DHT22;42008;52.934;5.884;2023-05-08T13:08:32;24.10;75.30
56137;DHT22;42008;52.934;5.884;2023-05-08T13:10:58;23.30;99.90
56137;DHT22;42008;52.934;5.884;2023-05-08T13:13:28;24.30;99.90
56137;DHT22;42008;52.934;5.884;2023-05-08T13:15:55;24.20;99.90
56137;DHT22;42008;52.934;5.884;2023-05-08T13:18:23;24.30;99.90
56137;DHT22;42008;52.934;5.884;2023-05-08T13:20:49;23.70;99.90
56137;DHT22;42008;52.934;5.884;2023-05-08T13:23:14;23.70;1.00
56137;DHT22;42008;52.934;5.884;2023-05-08T13:25:40;23.70;1.00
56137;DHT22;42008;52.934;5.884;2023-05-08T13:28:07;23.60;1.00
56137;DHT22;42008;52.934;5.884;2023-05-08T13:30:34;23.50;77.70
56137;DHT22;42008;52.934;5.884;2023-05-08T13:33:01;21.40;1.00
56137;DHT22;42008;52.934;5.884;2023-05-08T13:35:27;21.90;1.00
56137;DHT22;42008;52.934;5.884;2023-05-08T13:37:54;22.70;63.80
56137;DHT22;42008;52.934;5.884;2023-05-08T13:40:20;23.90;99.90
56137;DHT22;42008;52.934;5.884;2023-05-08T13:42:45;24.00;99.90
56137;DHT22;42008;52.934;5.884;2023-05-08T13:45:11;23.70;99.90
56137;DHT22;42008;52.934;5.884;2023-05-08T13:47:44;23.30;99.90
56137;DHT22;42008;52.934;5.884;2023-05-08T13:50:11;23.10;99.90
56137;DHT22;42008;52.934;5.884;2023-05-08T13:52:38;22.60;1.00
56137;DHT22;42008;52.934;5.884;2023-05-08T13:55:08;23.50;99.90
56137;DHT22;42008;52.934;5.884;2023-05-08T13:57:34;22.80;99.90
56137;DHT22;42008;52.934;5.884;2023-05-08T14:00:00;23.10;1.00
56137;DHT22;42008;52.934;5.884;2023-05-08T14:02:26;23.50;99.90
56137;DHT22;42008;52.934;5.884;2023-05-08T14:04:52;23.20;99.90
56137;DHT22;42008;52.934;5.884;2023-05-08T14:07:17;23.40;99.90
56137;DHT22;42008;52.934;5.884;2023-05-08T14:09:44;23.30;99.90
56137;DHT22;42008;52.934;5.884;2023-05-08T14:12:10;22.90;99.90
56137;DHT22;42008;52.934;5.884;2023-05-08T14:14:36;22.60;1.00
56137;DHT22;42008;52.934;5.884;2023-05-08T14:17:04;22.70;1.00
56137;DHT22;42008;52.934;5.884;2023-05-08T14:19:30;22.20;1.00
56137;DHT22;42008;52.934;5.884;2023-05-08T14:21:55;22.60;1.00
56137;DHT22;42008;52.934;5.884;2023-05-08T14:24:21;23.30;99.90
56137;DHT22;42008;52.934;5.884;2023-05-08T14:26:46;21.30;99.90
56137;DHT22;42008;52.934;5.884;2023-05-08T14:29:12;21.10;1.00
56137;DHT22;42008;52.934;5.884;2023-05-08T14:31:38;21.20;99.90
56137;DHT22;42008;52.934;5.884;2023-05-08T14:34:03;21.00;99.90
56137;DHT22;42008;52.934;5.884;2023-05-08T14:36:29;20.90;99.90
56137;DHT22;42008;52.934;5.884;2023-05-08T14:38:55;20.90;99.90
56137;DHT22;42008;52.934;5.884;2023-05-08T14:41:21;21.80;99.90
56137;DHT22;42008;52.934;5.884;2023-05-08T14:43:46;22.30;99.90
56137;DHT22;42008;52.934;5.884;2023-05-08T14:46:14;22.10;99.90
56137;DHT22;42008;52.934;5.884;2023-05-08T14:48:40;21.40;99.90
56137;DHT22;42008;52.934;5.884;2023-05-08T14:51:06;21.10;1.00
56137;DHT22;42008;52.934;5.884;2023-05-08T14:53:32;20.70;99.90
56137;DHT22;42008;52.934;5.884;2023-05-08T14:55:57;21.30;1.00
56137;DHT22;42008;52.934;5.884;2023-05-08T14:58:24;22.40;99.90
56137;DHT22;42008;52.934;5.884;2023-05-08T15:00:50;22.60;1.00
56137;DHT22;42008;52.934;5.884;2023-05-08T15:03:16;23.20;99.90
56137;DHT22;42008;52.934;5.884;2023-05-08T15:05:41;23.10;99.90
56137;DHT22;42008;52.934;5.884;2023-05-08T15:08:08;23.50;21.20
56137;DHT22;42008;52.934;5.884;2023-05-08T15:10:34;23.60;1.00
56137;DHT22;42008;52.934;5.884;2023-05-08T15:13:00;23.90;1.00
56137;DHT22;42008;52.934;5.884;2023-05-08T15:15:25;24.20;1.00
56137;DHT22;42008;52.934;5.884;2023-05-08T15:17:51;24.10;1.00
56137;DHT22;42008;52.934;5.884;2023-05-08T15:20:16;23.70;1.00
56137;DHT22;42008;52.934;5.884;2023-05-08T15:22:42;23.30;1.00
56137;DHT22;42008;52.934;5.884;2023-05-08T15:25:08;23.70;1.00
56137;DHT22;42008;52.934;5.884;2023-05-08T15:27:33;23.90;99.90
56137;DHT22;42008;52.934;5.884;2023-05-08T15:29:59;26.00;99.90
56137;DHT22;42008;52.934;5.884;2023-05-08T15:32:24;24.80;99.90
56137;DHT22;42008;52.934;5.884;2023-05-08T15:34:50;26.20;99.90
56137;DHT22;42008;52.934;5.884;2023-05-08T15:37:16;25.80;99.90
56137;DHT22;42008;52.934;5.884;2023-05-08T15:39:41;23.70;99.90
56137;DHT22;42008;52.934;5.884;2023-05-08T15:42:07;23.70;99.90
56137;DHT22;42008;52.934;5.884;2023-05-08T15:44:33;23.60;99.90
56137;DHT22;42008;52.934;5.884;2023-05-08T15:46:58;23.40;99.90
56137;DHT22;42008;52.934;5.884;2023-05-08T15:49:24;23.10;99.90
56137;DHT22;42008;52.934;5.884;2023-05-08T15:51:52;24.00;99.90
56137;DHT22;42008;52.934;5.884;2023-05-08T15:54:17;23.30;99.90
56137;DHT22;42008;52.934;5.884;2023-05-08T15:56:43;23.70;99.90
56137;DHT22;42008;52.934;5.884;2023-05-08T15:59:09;24.50;99.90
56137;DHT22;42008;52.934;5.884;2023-05-08T16:01:34;26.30;99.90
56137;DHT22;42008;52.934;5.884;2023-05-08T16:04:00;24.80;99.90
56137;DHT22;42008;52.934;5.884;2023-05-08T16:06:26;25.10;99.90
56137;DHT22;42008;52.934;5.884;2023-05-08T16:08:51;26.90;99.90
56137;DHT22;42008;52.934;5.884;2023-05-08T16:11:17;27.50;99.90
56137;DHT22;42008;52.934;5.884;2023-05-08T16:13:42;26.80;99.90
56137;DHT22;42008;52.934;5.884;2023-05-08T16:16:08;25.80;99.90
56137;DHT22;42008;52.934;5.884;2023-05-08T16:18:34;26.00;99.90
56137;DHT22;42008;52.934;5.884;2023-05-08T16:20:59;26.10;99.90
56137;DHT22;42008;52.934;5.884;2023-05-08T16:23:25;25.10;99.90
56137;DHT22;42008;52.934;5.884;2023-05-08T16:25:51;24.00;99.90